createdAt,value
2019-02-19T00:01:25.749Z,34.07
2019-02-19T00:03:54.057Z,33.77
2019-02-19T00:06:22.800Z,35.10
2019-02-19T00:08:51.111Z,37.48
2019-02-19T00:11:19.409Z,35.00
2019-02-19T00:13:47.729Z,33.77
2019-02-19T00:16:16.108Z,35.15
2019-02-19T00:18:44.707Z,35.20
2019-02-19T00:21:13.081Z,34.97
2019-02-19T00:23:41.386Z,32.88
2019-02-19T00:26:17.220Z,32.63
2019-02-19T00:28:45.525Z,34.10
2019-02-19T00:31:13.909Z,35.07
2019-02-19T00:33:42.212Z,36.93
2019-02-19T00:36:10.620Z,35.00
2019-02-19T00:38:38.924Z,34.78
2019-02-19T00:41:07.596Z,33.23
2019-02-19T00:43:36.299Z,37.43
2019-02-19T00:46:05.104Z,33.77
2019-02-19T00:48:33.514Z,34.95
2019-02-19T00:51:01.820Z,35.03
2019-02-19T00:53:30.129Z,35.77
2019-02-19T00:55:58.449Z,36.67
2019-02-19T00:58:26.747Z,37.57
2019-02-19T01:00:55.077Z,34.60
2019-02-19T01:03:23.545Z,34.20
2019-02-19T01:05:51.866Z,36.23
2019-02-19T01:08:20.233Z,34.57
2019-02-19T01:10:48.534Z,37.20
2019-02-19T01:13:16.857Z,36.47
2019-02-19T01:15:45.177Z,36.15
2019-02-19T01:18:13.495Z,37.80
2019-02-19T01:20:41.799Z,35.13
2019-02-19T01:23:10.132Z,34.33
2019-02-19T01:25:38.438Z,34.90
2019-02-19T01:28:06.740Z,34.40
2019-02-19T01:30:35.463Z,34.47
2019-02-19T01:33:03.767Z,34.13
2019-02-19T01:35:32.101Z,33.10
2019-02-19T01:38:00.407Z,35.10
2019-02-19T01:40:28.708Z,34.58
2019-02-19T01:42:57.098Z,35.30
2019-02-19T01:45:33.713Z,36.20
2019-02-19T01:47:55.464Z,35.40
2019-02-19T01:50:24.156Z,33.70
2019-02-19T01:52:52.461Z,38.00
2019-02-19T01:55:21.117Z,35.13
2019-02-19T01:57:49.412Z,35.57
2019-02-19T02:00:18.187Z,34.37
2019-02-19T02:02:46.495Z,33.80
2019-02-19T02:05:14.792Z,33.63
2019-02-19T02:07:43.427Z,35.43
2019-02-19T02:10:11.730Z,38.00
2019-02-19T02:12:40.037Z,35.97
2019-02-19T02:15:08.534Z,33.23
2019-02-19T02:17:37.165Z,31.77
2019-02-19T02:20:07.433Z,35.70
2019-02-19T02:22:35.810Z,32.87
2019-02-19T02:25:04.187Z,36.87
2019-02-19T02:27:32.582Z,34.53
2019-02-19T02:30:00.899Z,38.77
2019-02-19T02:32:29.206Z,37.07
2019-02-19T02:34:57.507Z,36.10
2019-02-19T02:37:25.835Z,34.27
2019-02-19T02:39:54.139Z,35.55
2019-02-19T02:42:22.440Z,33.23
2019-02-19T02:44:50.763Z,35.53
2019-02-19T02:47:19.061Z,32.50
2019-02-19T02:49:47.367Z,32.57
2019-02-19T02:52:15.701Z,36.70
2019-02-19T02:54:44.010Z,36.40
2019-02-19T02:57:12.309Z,34.53
2019-02-19T02:59:40.654Z,34.87
2019-02-19T03:02:09.096Z,33.20
2019-02-19T03:04:37.399Z,35.50
2019-02-19T03:07:07.351Z,36.40
2019-02-19T03:09:35.653Z,34.07
2019-02-19T03:12:04.043Z,35.80
2019-02-19T03:14:32.349Z,34.13
2019-02-19T03:17:00.685Z,34.15
2019-02-19T03:19:28.996Z,35.07
2019-02-19T03:21:59.335Z,34.63
2019-02-19T03:24:27.353Z,36.47
2019-02-19T03:26:55.658Z,34.88
2019-02-19T03:29:23.998Z,33.47
2019-02-19T03:31:52.284Z,33.80
2019-02-19T03:34:20.593Z,35.87
2019-02-19T03:36:48.918Z,32.60
2019-02-19T03:39:17.223Z,34.78
2019-02-19T03:41:46.134Z,34.93
2019-02-19T03:44:14.501Z,34.65
2019-02-19T03:46:43.105Z,36.57
2019-02-19T03:49:11.429Z,35.63
2019-02-19T03:51:39.740Z,35.33
2019-02-19T03:54:08.069Z,35.10
2019-02-19T03:56:36.848Z,34.03
2019-02-19T03:59:05.496Z,32.78
2019-02-19T04:01:33.845Z,33.47
2019-02-19T04:04:02.186Z,34.43
2019-02-19T04:06:32.413Z,34.43
2019-02-19T04:09:00.869Z,33.00
2019-02-19T04:11:29.179Z,33.05
2019-02-19T04:13:57.490Z,31.33
2019-02-19T04:16:25.799Z,35.37
2019-02-19T04:18:54.210Z,33.80
2019-02-19T04:21:22.800Z,35.20
2019-02-19T04:23:51.106Z,33.58
2019-02-19T04:26:19.426Z,32.13
2019-02-19T04:28:47.731Z,36.03
2019-02-19T04:31:16.055Z,35.65
2019-02-19T04:33:44.369Z,26.20
2019-02-19T04:36:12.704Z,30.40
2019-02-19T04:38:41.003Z,46.67
2019-02-19T04:41:09.314Z,38.33
2019-02-19T04:43:37.641Z,32.87
2019-02-19T04:46:05.939Z,36.33
2019-02-19T04:48:34.276Z,28.37
2019-02-19T04:51:02.582Z,26.77
2019-02-19T04:53:30.872Z,26.13
2019-02-19T04:55:59.529Z,25.73
2019-02-19T04:58:27.829Z,24.25
2019-02-19T05:00:56.149Z,23.15
2019-02-19T05:03:24.456Z,27.20
2019-02-19T05:05:52.762Z,24.77
2019-02-19T05:08:21.086Z,27.40
2019-02-19T05:10:49.464Z,28.93
2019-02-19T05:13:17.787Z,26.30
2019-02-19T05:15:46.087Z,27.27
2019-02-19T05:18:14.400Z,26.70
2019-02-19T05:20:42.782Z,28.53
2019-02-19T05:23:11.373Z,29.40
2019-02-19T05:25:39.698Z,27.60
2019-02-19T05:28:08.014Z,30.30
2019-02-19T05:30:36.358Z,30.87
2019-02-19T05:33:04.740Z,31.00
2019-02-19T05:35:33.333Z,31.17
2019-02-19T05:38:01.923Z,30.67
2019-02-19T05:40:30.229Z,31.20
2019-02-19T05:42:58.550Z,31.00
2019-02-19T05:45:27.177Z,31.13
2019-02-19T05:47:55.787Z,32.40
2019-02-19T05:50:24.098Z,29.80
2019-02-19T05:52:52.395Z,30.93
2019-02-19T05:55:20.720Z,29.80
2019-02-19T05:57:49.026Z,36.17
2019-02-19T06:00:17.437Z,31.07
2019-02-19T06:02:45.752Z,32.17
2019-02-19T06:05:14.424Z,31.57
2019-02-19T06:07:43.117Z,36.67
2019-02-19T06:10:12.812Z,30.80
2019-02-19T06:12:41.219Z,32.40
2019-02-19T06:15:11.673Z,33.97
2019-02-19T06:17:39.963Z,31.40
2019-02-19T06:20:09.032Z,32.77
2019-02-19T06:22:37.722Z,31.13
2019-02-19T06:25:08.349Z,33.20
2019-02-19T06:27:36.812Z,35.97
2019-02-19T06:30:11.145Z,33.90
2019-02-19T06:32:39.466Z,34.53
2019-02-19T06:35:08.825Z,34.90
2019-02-19T06:37:37.153Z,34.30
2019-02-19T06:40:08.566Z,39.00
2019-02-19T06:42:36.863Z,36.80
2019-02-19T06:45:05.856Z,36.70
2019-02-19T06:47:34.160Z,37.33
2019-02-19T06:50:02.533Z,37.20
2019-02-19T06:52:30.842Z,33.77
2019-02-19T06:54:59.177Z,38.90
2019-02-19T06:57:27.846Z,39.73
2019-02-19T06:59:56.155Z,47.77
2019-02-19T07:02:26.119Z,39.20
2019-02-19T07:04:55.302Z,48.20
2019-02-19T07:07:23.624Z,42.40
2019-02-19T07:09:52.000Z,40.93
2019-02-19T07:12:20.392Z,39.50
2019-02-19T07:14:48.709Z,42.70
2019-02-19T07:17:17.056Z,43.05
2019-02-19T07:19:45.369Z,40.30
2019-02-19T07:22:13.753Z,41.42
2019-02-19T07:24:42.085Z,42.67
2019-02-19T07:27:10.467Z,43.37
2019-02-19T07:29:38.788Z,46.00
2019-02-19T07:32:07.093Z,40.90
2019-02-19T07:34:35.415Z,46.20
2019-02-19T07:37:03.744Z,46.40
2019-02-19T07:39:32.040Z,41.27
2019-02-19T07:42:00.373Z,42.40
2019-02-19T07:44:28.689Z,44.43
2019-02-19T07:46:57.001Z,44.40
2019-02-19T07:49:25.329Z,46.70
2019-02-19T07:51:53.638Z,43.20
2019-02-19T07:54:21.982Z,42.73
2019-02-19T07:56:50.646Z,43.03
2019-02-19T07:59:18.959Z,42.63
2019-02-19T08:01:47.331Z,41.30
2019-02-19T08:04:15.681Z,43.60
2019-02-19T08:06:44.029Z,51.87
2019-02-19T08:09:12.718Z,51.97
2019-02-19T08:11:41.089Z,47.80
2019-02-19T08:14:09.418Z,43.80
2019-02-19T08:16:37.721Z,38.70
2019-02-19T08:19:06.133Z,41.27
2019-02-19T08:21:34.424Z,40.28
2019-02-19T08:24:02.738Z,41.37
2019-02-19T08:26:31.538Z,40.70
2019-02-19T08:29:07.099Z,39.00
2019-02-19T08:31:29.903Z,37.43
2019-02-19T08:33:58.207Z,37.93
2019-02-19T08:36:26.515Z,36.38
2019-02-19T08:38:54.834Z,39.07
2019-02-19T08:41:23.144Z,37.13
2019-02-19T08:43:51.484Z,37.13
2019-02-19T08:46:19.789Z,35.40
2019-02-19T08:48:48.090Z,37.47
2019-02-19T08:51:16.423Z,40.20
2019-02-19T08:53:44.730Z,35.40
2019-02-19T08:56:13.074Z,38.27
2019-02-19T08:58:41.376Z,36.20
2019-02-19T09:01:10.005Z,35.43
2019-02-19T09:03:38.307Z,37.60
2019-02-19T09:06:06.612Z,34.13
2019-02-19T09:08:34.935Z,34.10
2019-02-19T09:11:03.529Z,25.77
2019-02-19T09:13:31.849Z,32.60
2019-02-19T09:16:00.418Z,29.97
2019-02-19T09:18:28.746Z,31.20
2019-02-19T09:20:57.372Z,24.73
2019-02-19T09:23:26.608Z,25.08
2019-02-19T09:25:54.950Z,25.47
2019-02-19T09:28:24.081Z,22.47
2019-02-19T09:30:52.737Z,20.12
2019-02-19T09:33:21.120Z,20.33
2019-02-19T09:35:49.428Z,21.87
2019-02-19T09:38:18.084Z,17.32
2019-02-19T09:40:46.391Z,20.92
2019-02-19T09:43:14.790Z,19.17
2019-02-19T09:45:43.086Z,19.90
2019-02-19T09:48:11.713Z,19.13
2019-02-19T09:50:40.038Z,16.37
2019-02-19T09:53:08.349Z,18.70
2019-02-19T09:55:36.682Z,16.73
2019-02-19T09:58:05.151Z,17.27
2019-02-19T10:00:34.137Z,18.57
2019-02-19T10:03:02.447Z,17.83
2019-02-19T10:05:31.664Z,18.07
2019-02-19T10:07:59.986Z,15.17
2019-02-19T10:10:28.291Z,17.67
2019-02-19T10:12:56.629Z,16.37
2019-02-19T10:15:24.934Z,15.47
2019-02-19T10:17:53.241Z,16.43
2019-02-19T10:20:21.569Z,15.93
2019-02-19T10:22:50.897Z,17.00
2019-02-19T10:25:19.589Z,16.27
2019-02-19T10:27:47.891Z,17.90
2019-02-19T10:30:18.347Z,16.47
2019-02-19T10:32:46.703Z,17.20
2019-02-19T10:35:15.048Z,17.47
2019-02-19T10:37:43.376Z,17.70
2019-02-19T10:40:18.938Z,17.03
2019-02-19T10:42:47.241Z,16.93
2019-02-19T10:45:26.803Z,15.87
2019-02-19T10:47:55.111Z,16.73
2019-02-19T10:50:23.446Z,14.87
2019-02-19T10:52:52.176Z,15.90
2019-02-19T10:55:20.537Z,15.20
2019-02-19T10:57:48.856Z,16.60
2019-02-19T11:00:20.066Z,14.87
2019-02-19T11:02:48.542Z,14.53
2019-02-19T11:05:17.355Z,13.90
2019-02-19T11:07:45.666Z,16.50
2019-02-19T11:10:14.659Z,14.33
2019-02-19T11:12:43.417Z,15.60
2019-02-19T11:15:13.178Z,13.97
2019-02-19T11:17:41.575Z,14.73
2019-02-19T11:20:12.320Z,13.25
2019-02-19T11:22:40.689Z,14.23
2019-02-19T11:25:11.531Z,14.27
2019-02-19T11:27:39.923Z,12.37
2019-02-19T11:30:20.440Z,13.97
2019-02-19T11:32:49.156Z,14.37
2019-02-19T11:35:17.464Z,14.40
2019-02-19T11:37:45.969Z,14.80
2019-02-19T11:40:14.861Z,15.60
2019-02-19T11:42:43.181Z,12.90
2019-02-19T11:45:15.842Z,13.57
2019-02-19T11:47:44.156Z,14.90
2019-02-19T11:50:13.776Z,13.97
2019-02-19T11:52:42.163Z,14.70
2019-02-19T11:55:15.806Z,14.43
2019-02-19T11:57:44.729Z,14.65
2019-02-19T12:00:34.207Z,13.80
2019-02-19T12:03:02.550Z,14.60
2019-02-19T12:05:30.856Z,14.10
2019-02-19T12:07:59.169Z,14.87
2019-02-19T12:10:27.493Z,13.87
2019-02-19T12:12:55.792Z,13.70
2019-02-19T12:15:24.119Z,14.07
2019-02-19T12:17:52.424Z,12.65
2019-02-19T12:20:20.829Z,12.90
2019-02-19T12:22:49.530Z,15.80
2019-02-19T12:25:18.214Z,13.03
2019-02-19T12:27:46.541Z,13.60
2019-02-19T12:30:19.569Z,13.93
2019-02-19T12:32:49.286Z,12.30
2019-02-19T12:35:17.756Z,13.70
2019-02-19T12:37:46.083Z,13.40
2019-02-19T12:40:14.760Z,14.33
2019-02-19T12:42:43.116Z,14.00
2019-02-19T12:45:12.684Z,13.03
2019-02-19T12:47:41.316Z,13.40
2019-02-19T12:50:12.174Z,13.00
2019-02-19T12:52:40.480Z,15.37
2019-02-19T12:55:10.157Z,14.60
2019-02-19T12:57:38.547Z,13.90
2019-02-19T13:00:10.597Z,13.85
2019-02-19T13:02:39.390Z,13.83
2019-02-19T13:05:09.839Z,15.00
2019-02-19T13:07:38.177Z,16.13
2019-02-19T13:10:09.336Z,16.13
2019-02-19T13:12:37.644Z,14.57
2019-02-19T13:15:12.070Z,16.87
2019-02-19T13:17:40.440Z,14.07
2019-02-19T13:20:11.953Z,14.00
2019-02-19T13:22:40.343Z,15.70
2019-02-19T13:25:10.689Z,14.30
2019-02-19T13:27:39.076Z,13.40
2019-02-19T13:30:12.963Z,12.55
2019-02-19T13:32:41.367Z,13.80
2019-02-19T13:35:11.920Z,13.07
2019-02-19T13:37:40.227Z,16.17
2019-02-19T13:40:11.380Z,14.13
2019-02-19T13:42:39.757Z,14.37
2019-02-19T13:45:11.014Z,13.15
2019-02-19T13:47:39.528Z,13.43
2019-02-19T13:50:11.115Z,14.45
2019-02-19T13:52:41.057Z,14.70
2019-02-19T13:55:11.079Z,13.10
2019-02-19T13:57:39.533Z,14.97
2019-02-19T14:00:11.223Z,13.60
2019-02-19T14:02:39.553Z,12.87
2019-02-19T14:05:08.973Z,14.17
2019-02-19T14:07:37.361Z,14.47
2019-02-19T14:10:10.785Z,11.20
2019-02-19T14:12:39.087Z,10.77
2019-02-19T14:15:11.891Z,10.00
2019-02-19T14:17:40.206Z,12.07
2019-02-19T14:20:10.337Z,10.13
2019-02-19T14:22:49.657Z,11.17
2019-02-19T14:25:19.628Z,10.13
2019-02-19T14:27:49.580Z,10.30
2019-02-19T14:30:26.069Z,9.98
2019-02-19T14:33:07.679Z,9.83
2019-02-19T14:35:43.201Z,10.57
2019-02-19T14:38:16.096Z,9.37
2019-02-19T14:40:58.105Z,10.83
2019-02-19T14:43:43.825Z,9.87
2019-02-19T14:46:22.561Z,9.90
2019-02-19T14:48:52.497Z,9.47
2019-02-19T14:51:34.499Z,9.50
2019-02-19T14:54:13.354Z,10.03
2019-02-19T14:56:52.140Z,10.57
2019-02-19T14:59:31.090Z,9.90
2019-02-19T15:02:17.017Z,9.30
2019-02-19T15:04:58.898Z,9.10
2019-02-19T15:07:31.592Z,9.60
2019-02-19T15:10:16.198Z,9.90
2019-02-19T15:13:04.143Z,7.87
2019-02-19T15:15:46.369Z,10.20
2019-02-19T15:18:34.088Z,9.70
2019-02-19T15:21:20.129Z,10.73
2019-02-19T15:23:53.063Z,10.13
2019-02-19T15:29:29.994Z,9.70
2019-02-19T15:31:59.934Z,10.67
2019-02-19T15:34:36.004Z,12.20
2019-02-19T15:37:08.403Z,11.33
2019-02-19T15:39:38.354Z,10.98
2019-02-19T15:42:24.804Z,10.37
2019-02-19T15:44:54.769Z,10.07
2019-02-19T15:47:30.332Z,10.03
2019-02-19T15:50:06.084Z,10.20
2019-02-19T15:52:36.100Z,10.80
2019-02-19T15:55:12.873Z,10.70
2019-02-19T15:57:45.488Z,10.27
2019-02-19T16:00:21.236Z,14.20
2019-02-19T16:02:51.494Z,11.17
2019-02-19T16:05:37.897Z,9.88
2019-02-19T16:08:13.856Z,12.10
2019-02-19T16:10:52.827Z,10.10
2019-02-19T16:13:23.110Z,11.53
2019-02-19T16:16:07.887Z,11.60
2019-02-19T16:18:40.867Z,11.45
2019-02-19T16:21:10.855Z,10.83
2019-02-19T16:23:46.890Z,11.30
2019-02-19T16:26:18.745Z,10.05
2019-02-19T16:28:52.008Z,11.37
2019-02-19T16:31:30.882Z,11.17
2019-02-19T16:34:00.849Z,12.75
2019-02-19T16:36:33.612Z,11.60
2019-02-19T16:39:09.327Z,10.67
2019-02-19T16:41:45.341Z,13.60
2019-02-19T16:44:31.552Z,12.23
2019-02-19T16:47:07.516Z,12.50
2019-02-19T16:50:07.725Z,12.90
2019-02-19T16:52:39.801Z,12.43
2019-02-19T16:55:13.079Z,12.20
2019-02-19T16:57:45.584Z,12.98
2019-02-19T17:00:21.721Z,17.60
2019-02-19T17:02:57.383Z,15.27
2019-02-19T17:05:30.381Z,15.83
2019-02-19T17:08:12.397Z,15.00
2019-02-19T17:10:57.378Z,12.80
2019-02-19T17:13:39.380Z,11.33
2019-02-19T17:16:25.803Z,13.20
2019-02-19T17:18:58.495Z,13.10
2019-02-19T17:21:28.449Z,15.65
2019-02-19T17:24:04.391Z,11.00
2019-02-19T17:26:43.222Z,13.55
2019-02-19T17:29:16.126Z,21.48
2019-02-19T17:31:46.082Z,12.03
2019-02-19T17:34:18.848Z,11.80
2019-02-19T17:36:48.863Z,19.57
2019-02-19T17:39:18.820Z,25.30
2019-02-19T17:41:51.838Z,16.05
2019-02-19T17:44:38.108Z,14.00
2019-02-19T17:47:23.353Z,13.00
2019-02-19T17:49:53.423Z,12.60
2019-02-19T17:52:39.612Z,12.67
2019-02-19T17:55:26.212Z,12.90
2019-02-19T17:58:02.066Z,13.13
2019-02-19T18:00:35.279Z,11.80
2019-02-19T18:03:20.529Z,10.53
2019-02-19T18:06:07.123Z,13.47
2019-02-19T18:08:39.690Z,13.87
2019-02-19T18:11:26.111Z,13.13
2019-02-19T18:14:11.934Z,13.90
2019-02-19T18:16:41.958Z,12.88
2019-02-19T18:19:10.336Z,12.20
2019-02-19T18:21:38.638Z,12.93
2019-02-19T18:24:06.962Z,14.00
2019-02-19T18:26:35.296Z,11.67
2019-02-19T18:29:03.637Z,15.77
2019-02-19T18:31:31.933Z,11.90
2019-02-19T18:34:00.259Z,12.53
2019-02-19T18:36:28.560Z,18.57
2019-02-19T18:38:56.919Z,16.90
2019-02-19T18:41:25.546Z,15.80
2019-02-19T18:43:53.891Z,15.70
2019-02-19T18:46:22.244Z,15.93
2019-02-19T18:48:50.557Z,14.87
2019-02-19T18:51:18.959Z,19.13
2019-02-19T18:53:47.431Z,20.40
2019-02-19T18:56:15.929Z,15.33
2019-02-19T18:58:44.239Z,23.27
2019-02-19T19:01:12.703Z,14.97
2019-02-19T19:03:40.973Z,14.23
2019-02-19T19:06:09.289Z,15.78
2019-02-19T19:08:37.615Z,16.57
2019-02-19T19:11:05.944Z,17.60
2019-02-19T19:13:34.602Z,17.47
2019-02-19T19:16:02.904Z,17.63
2019-02-19T19:18:31.225Z,15.43
2019-02-19T19:21:07.644Z,17.57
2019-02-19T19:23:29.605Z,17.50
2019-02-19T19:25:57.929Z,16.13
2019-02-19T19:28:26.624Z,16.97
2019-02-19T19:30:55.031Z,17.20
2019-02-19T19:33:23.345Z,17.10
2019-02-19T19:35:51.650Z,17.87
2019-02-19T19:38:20.053Z,17.63
2019-02-19T19:40:48.379Z,17.07
2019-02-19T19:43:16.779Z,16.53
2019-02-19T19:45:45.086Z,18.03
2019-02-19T19:48:13.427Z,19.33
2019-02-19T19:50:41.809Z,17.03
2019-02-19T19:53:10.122Z,16.40
2019-02-19T19:55:38.462Z,17.97
2019-02-19T19:58:06.758Z,17.10
2019-02-19T20:00:35.093Z,20.27
2019-02-19T20:03:03.537Z,30.53
2019-02-19T20:05:31.869Z,19.10
2019-02-19T20:08:00.209Z,17.70
2019-02-19T20:10:28.557Z,17.17
2019-02-19T20:12:56.869Z,18.20
2019-02-19T20:15:25.243Z,18.27
2019-02-19T20:17:53.567Z,23.62
2019-02-19T20:20:21.879Z,18.13
2019-02-19T20:22:50.214Z,18.00
2019-02-19T20:25:18.525Z,16.80
2019-02-19T20:27:46.846Z,18.00
2019-02-19T20:30:16.394Z,16.90
2019-02-19T20:32:44.703Z,17.50
2019-02-19T20:35:13.319Z,18.20
2019-02-19T20:37:41.646Z,16.03
2019-02-19T20:40:12.873Z,16.07
2019-02-19T20:42:41.191Z,15.60
2019-02-19T20:45:13.709Z,16.00
2019-02-19T20:47:42.094Z,16.23
2019-02-19T20:50:11.741Z,16.67
2019-02-19T20:52:40.146Z,16.17
2019-02-19T20:55:10.586Z,15.13
2019-02-19T20:57:38.964Z,17.50
2019-02-19T21:00:16.524Z,15.53
2019-02-19T21:02:45.001Z,16.60
2019-02-19T21:05:13.403Z,15.40
2019-02-19T21:07:41.711Z,15.37
2019-02-19T21:10:18.477Z,17.93
2019-02-19T21:12:47.126Z,16.40
2019-02-19T21:15:15.570Z,16.77
2019-02-19T21:17:43.966Z,18.10
2019-02-19T21:20:13.033Z,16.83
2019-02-19T21:22:41.421Z,16.83
2019-02-19T21:25:11.164Z,17.77
2019-02-19T21:27:39.554Z,18.60
2019-02-19T21:30:11.103Z,17.98
2019-02-19T21:32:39.449Z,18.80
2019-02-19T21:35:09.012Z,17.70
2019-02-19T21:37:37.911Z,19.57
2019-02-19T21:40:11.574Z,17.00
2019-02-19T21:42:40.100Z,18.80
2019-02-19T21:45:10.784Z,20.17
2019-02-19T21:47:39.114Z,18.10
2019-02-19T21:50:15.391Z,19.03
2019-02-19T21:52:43.265Z,17.63
2019-02-19T21:55:12.970Z,19.10
2019-02-19T21:57:41.341Z,18.73
2019-02-19T22:00:20.527Z,18.20
2019-02-19T22:02:49.310Z,18.10
2019-02-19T22:05:17.612Z,17.93
2019-02-19T22:07:45.930Z,18.10
2019-02-19T22:10:14.773Z,19.50
2019-02-19T22:12:43.118Z,18.30
2019-02-19T22:15:13.353Z,18.50
2019-02-19T22:17:41.719Z,19.13
2019-02-19T22:20:14.897Z,17.37
2019-02-19T22:22:43.201Z,18.97
2019-02-19T22:25:11.525Z,18.63
2019-02-19T22:27:39.843Z,20.20
2019-02-19T22:30:09.600Z,20.52
2019-02-19T22:32:37.980Z,20.47
2019-02-19T22:35:06.969Z,20.70
2019-02-19T22:37:35.729Z,20.00
2019-02-19T22:40:05.967Z,20.53
2019-02-19T22:42:34.287Z,19.67
2019-02-19T22:45:02.590Z,18.63
2019-02-19T22:47:30.920Z,20.30
2019-02-19T22:50:00.194Z,20.60
2019-02-19T22:52:28.581Z,20.50
2019-02-19T22:54:58.914Z,19.63
2019-02-19T22:57:27.221Z,18.87
2019-02-19T22:59:55.545Z,21.83
2019-02-19T23:02:24.356Z,19.60
2019-02-19T23:04:53.045Z,21.27
2019-02-19T23:07:21.737Z,23.60
2019-02-19T23:09:50.509Z,21.90
2019-02-19T23:12:18.852Z,21.90
2019-02-19T23:14:47.150Z,21.03
2019-02-19T23:17:15.520Z,22.07
2019-02-19T23:19:43.844Z,23.77
2019-02-19T23:22:21.185Z,20.52
2019-02-19T23:24:42.631Z,21.73
2019-02-19T23:27:10.950Z,22.83
2019-02-19T23:29:39.242Z,25.50
2019-02-19T23:32:07.911Z,23.50
2019-02-19T23:34:36.215Z,22.10
2019-02-19T23:37:05.515Z,23.73
2019-02-19T23:39:43.229Z,21.70
2019-02-19T23:42:04.208Z,21.27
2019-02-19T23:44:32.500Z,24.53
2019-02-19T23:47:01.168Z,24.70
2019-02-19T23:49:29.487Z,24.33
2019-02-19T23:51:57.789Z,24.40
2019-02-19T23:54:26.117Z,20.87
2019-02-19T23:56:54.414Z,22.97
2019-02-19T23:59:22.752Z,23.80
